Time;durP1;ratioP1;P1;durP2;ratioP2;P2;SDS_P1;SDS_P2;PMS_P1;PMS_P2;Temp;Humidity;BMP_temperature;BMP_pressure;BME280_temperature;BME280_humidity;BME280_pressure;Samples;Min_cycle;Max_cycle;Signal;HPM_P1;HPM_P2
2024/03/20 00:00:12;;;;;;;0.20;0.08;;;;;;;;;;4942654;28;20070;-80
2024/03/20 00:02:38;;;;;;;0.20;0.20;;;;;;;;;;4965070;28;20096;-80
2024/03/20 00:05:04;;;;;;;0.20;0.10;;;;;;;;;;4943775;28;20054;-79
2024/03/20 00:07:30;;;;;;;0.20;0.13;;;;;;;;;;4940406;28;20035;-79
2024/03/20 00:09:57;;;;;;;0.22;0.10;;;;;;;;;;4943455;28;20070;-80
2024/03/20 00:12:23;;;;;;;0.20;0.10;;;;;;;;;;4929205;28;20042;-79
2024/03/20 00:14:49;;;;;;;0.80;0.25;;;;;;;;;;4943968;28;20507;-79
2024/03/20 00:17:15;;;;;;;0.20;0.10;;;;;;;;;;4941271;28;20512;-79
2024/03/20 00:19:41;;;;;;;0.20;0.00;;;;;;;;;;4946051;28;20038;-79
2024/03/20 00:22:07;;;;;;;0.20;0.20;;;;;;;;;;4939538;28;20070;-79
2024/03/20 00:24:33;;;;;;;0.20;0.10;;;;;;;;;;4945594;28;20570;-79
2024/03/20 00:27:00;;;;;;;0.20;0.10;;;;;;;;;;4943547;28;20046;-79
2024/03/20 00:29:27;;;;;;;0.20;0.10;;;;;;;;;;4941514;28;20143;-79
2024/03/20 00:31:55;;;;;;;0.20;0.10;;;;;;;;;;4943523;28;20101;-79
2024/03/20 00:34:21;;;;;;;0.20;0.13;;;;;;;;;;4941427;28;20043;-79
2024/03/20 00:36:47;;;;;;;0.35;0.20;;;;;;;;;;4930429;28;20494;-79
2024/03/20 00:39:13;;;;;;;0.68;0.30;;;;;;;;;;4964213;28;20057;-79
2024/03/20 00:41:39;;;;;;;0.20;0.00;;;;;;;;;;4960154;28;20050;-79
2024/03/20 00:44:05;;;;;;;0.20;0.00;;;;;;;;;;4964720;28;20035;-79
2024/03/20 00:46:31;;;;;;;0.20;0.00;;;;;;;;;;4965231;28;20084;-79
2024/03/20 00:48:57;;;;;;;0.20;0.00;;;;;;;;;;4963803;28;20042;-79
2024/03/20 00:51:23;;;;;;;3.25;0.20;;;;;;;;;;4960213;28;20066;-79
2024/03/20 00:53:49;;;;;;;0.20;0.10;;;;;;;;;;4960127;28;20426;-79
2024/03/20 00:56:15;;;;;;;0.20;0.00;;;;;;;;;;4963088;28;20038;-79
2024/03/20 00:58:41;;;;;;;0.20;0.10;;;;;;;;;;4959976;28;20054;-79
2024/03/20 01:01:07;;;;;;;0.20;0.10;;;;;;;;;;4961615;28;20046;-78
2024/03/20 01:03:33;;;;;;;0.20;0.10;;;;;;;;;;4958098;28;20058;-79
2024/03/20 01:05:59;;;;;;;0.20;0.05;;;;;;;;;;4964135;28;20050;-79
2024/03/20 01:08:25;;;;;;;0.20;0.10;;;;;;;;;;4958254;28;20502;-79
2024/03/20 01:10:51;;;;;;;0.20;0.10;;;;;;;;;;4962824;28;20604;-79
2024/03/20 01:13:20;;;;;;;0.20;0.10;;;;;;;;;;4961383;28;20129;-79
2024/03/20 01:15:46;;;;;;;0.20;0.10;;;;;;;;;;4962596;28;20650;-79
2024/03/20 01:18:12;;;;;;;0.20;0.10;;;;;;;;;;4964690;28;20065;-79
2024/03/20 01:20:38;;;;;;;0.85;0.35;;;;;;;;;;4958766;28;20038;-79
2024/03/20 01:23:04;;;;;;;0.20;0.10;;;;;;;;;;4963961;28;20684;-79
2024/03/20 01:25:30;;;;;;;0.20;0.10;;;;;;;;;;4956642;28;20073;-79
2024/03/20 01:27:56;;;;;;;0.20;0.17;;;;;;;;;;4971900;28;20538;-79
2024/03/20 01:30:22;;;;;;;0.20;0.10;;;;;;;;;;4959120;28;20056;-79
2024/03/20 01:32:48;;;;;;;0.20;0.10;;;;;;;;;;4975950;28;20099;-79
2024/03/20 01:35:14;;;;;;;0.20;0.10;;;;;;;;;;4955766;28;20609;-79
2024/03/20 01:37:40;;;;;;;0.20;0.10;;;;;;;;;;4974054;28;20093;-80
2024/03/20 01:40:06;;;;;;;0.20;0.10;;;;;;;;;;4939339;28;20466;-79
2024/03/20 01:42:33;;;;;;;0.30;0.28;;;;;;;;;;4976734;28;20074;-79
2024/03/20 01:45:12;;;;;;;0.20;0.08;;;;;;;;;;4955373;28;20076;-79
2024/03/20 01:47:39;;;;;;;0.20;0.00;;;;;;;;;;4960765;28;20053;-79
2024/03/20 01:50:08;;;;;;;0.20;0.13;;;;;;;;;;4957426;28;20067;-80
2024/03/20 01:52:34;;;;;;;0.20;0.10;;;;;;;;;;4959542;28;20062;-79
2024/03/20 01:55:00;;;;;;;0.20;0.00;;;;;;;;;;4963092;28;20494;-79
2024/03/20 01:57:26;;;;;;;0.20;0.20;;;;;;;;;;4957535;28;20419;-79
2024/03/20 01:59:52;;;;;;;0.20;0.10;;;;;;;;;;4959549;28;20041;-79
2024/03/20 02:02:18;;;;;;;0.20;0.00;;;;;;;;;;4956116;28;20046;-79
2024/03/20 02:04:45;;;;;;;0.20;0.00;;;;;;;;;;4973845;28;20034;-79
2024/03/20 02:07:11;;;;;;;0.20;0.15;;;;;;;;;;4960586;28;20592;-79
2024/03/20 02:09:37;;;;;;;0.20;0.15;;;;;;;;;;4954931;28;20565;-81
2024/03/20 02:12:03;;;;;;;0.20;0.10;;;;;;;;;;4961758;28;20062;-79
2024/03/20 02:14:29;;;;;;;0.20;0.10;;;;;;;;;;4958339;28;20030;-79
2024/03/20 02:16:55;;;;;;;0.20;0.10;;;;;;;;;;4956456;28;20039;-79
2024/03/20 02:19:21;;;;;;;0.20;0.10;;;;;;;;;;4945694;28;20584;-79
2024/03/20 02:21:47;;;;;;;0.20;0.08;;;;;;;;;;4978877;28;20046;-79
2024/03/20 02:24:13;;;;;;;0.20;0.10;;;;;;;;;;4960521;28;21293;-80
2024/03/20 02:26:39;;;;;;;0.20;0.10;;;;;;;;;;4963159;28;20054;-80
2024/03/20 02:29:05;;;;;;;0.30;0.10;;;;;;;;;;4961374;28;20066;-80
2024/03/20 02:31:31;;;;;;;0.30;0.20;;;;;;;;;;4956374;28;20088;-79
2024/03/20 02:33:57;;;;;;;0.20;0.10;;;;;;;;;;4961063;28;20037;-80
2024/03/20 02:36:23;;;;;;;0.20;0.00;;;;;;;;;;4958070;28;20042;-80
2024/03/20 02:38:49;;;;;;;0.30;0.20;;;;;;;;;;4933527;28;20050;-79
2024/03/20 02:41:15;;;;;;;0.20;0.00;;;;;;;;;;4938302;28;20039;-79
2024/03/20 02:43:41;;;;;;;0.80;0.30;;;;;;;;;;4941975;28;20049;-79
2024/03/20 02:46:07;;;;;;;0.20;0.10;;;;;;;;;;4941772;28;20048;-80
2024/03/20 02:48:34;;;;;;;0.20;0.13;;;;;;;;;;4939397;28;20479;-80
2024/03/20 02:51:00;;;;;;;0.20;0.17;;;;;;;;;;4941947;28;20039;-79
2024/03/20 02:53:26;;;;;;;0.30;0.25;;;;;;;;;;4938780;28;20066;-80
2024/03/20 02:55:52;;;;;;;0.20;0.10;;;;;;;;;;4941039;28;20182;-79
2024/03/20 02:58:18;;;;;;;0.20;0.10;;;;;;;;;;4946819;28;20054;-79
2024/03/20 03:00:44;;;;;;;0.30;0.30;;;;;;;;;;4938701;28;20050;-79
2024/03/20 03:03:10;;;;;;;0.20;0.10;;;;;;;;;;4940466;28;20042;-80
2024/03/20 03:05:36;;;;;;;0.43;0.43;;;;;;;;;;4939165;28;20039;-80
2024/03/20 03:08:03;;;;;;;0.20;0.10;;;;;;;;;;4939925;28;20108;-80
2024/03/20 03:10:29;;;;;;;0.20;0.10;;;;;;;;;;4958077;28;20043;-79
2024/03/20 03:12:56;;;;;;;0.45;0.28;;;;;;;;;;4961199;23;20517;-76
2024/03/20 03:15:22;;;;;;;0.20;0.00;;;;;;;;;;4942633;28;20070;-76
2024/03/20 03:17:53;;;;;;;0.20;0.03;;;;;;;;;;4946995;28;20036;-76
2024/03/20 03:20:21;;;;;;;1.50;0.63;;;;;;;;;;4966750;28;20404;-75
2024/03/20 03:22:47;;;;;;;0.20;0.10;;;;;;;;;;4950589;28;20054;-77
2024/03/20 03:25:13;;;;;;;0.20;0.00;;;;;;;;;;4961197;28;20705;-76
2024/03/20 03:27:39;;;;;;;0.20;0.00;;;;;;;;;;4946973;28;20046;-77
2024/03/20 03:30:07;;;;;;;0.20;0.00;;;;;;;;;;4953385;28;20455;-77
2024/03/20 03:32:34;;;;;;;0.20;0.10;;;;;;;;;;4964301;28;20428;-76
2024/03/20 03:35:00;;;;;;;0.20;0.13;;;;;;;;;;4958741;28;20038;-77
2024/03/20 03:37:26;;;;;;;0.20;0.10;;;;;;;;;;4956079;28;20058;-77
2024/03/20 03:39:52;;;;;;;0.20;0.10;;;;;;;;;;4955691;28;20062;-77
2024/03/20 03:42:19;;;;;;;0.20;0.10;;;;;;;;;;4980460;28;20042;-77
2024/03/20 03:44:45;;;;;;;0.20;0.00;;;;;;;;;;4958008;28;20073;-77
2024/03/20 03:47:11;;;;;;;0.20;0.10;;;;;;;;;;4946845;28;20067;-76
2024/03/20 03:49:37;;;;;;;0.32;0.30;;;;;;;;;;4957410;28;20049;-76
2024/03/20 03:52:03;;;;;;;0.20;0.15;;;;;;;;;;4946604;28;20038;-77
2024/03/20 03:54:29;;;;;;;0.20;0.10;;;;;;;;;;4959806;28;20478;-76
2024/03/20 03:56:57;;;;;;;0.30;0.20;;;;;;;;;;4957916;28;20053;-77
2024/03/20 03:59:23;;;;;;;0.47;0.47;;;;;;;;;;4976055;28;20042;-77
2024/03/20 04:01:49;;;;;;;0.20;0.00;;;;;;;;;;4958151;28;20046;-76
2024/03/20 04:04:15;;;;;;;0.20;0.00;;;;;;;;;;4949593;28;20050;-77
2024/03/20 04:06:43;;;;;;;0.20;0.10;;;;;;;;;;4954558;28;20096;-76
2024/03/20 04:09:10;;;;;;;0.25;0.05;;;;;;;;;;4945852;28;20050;-77
2024/03/20 04:11:37;;;;;;;0.20;0.10;;;;;;;;;;4960046;28;20047;-77
2024/03/20 04:14:03;;;;;;;0.20;0.00;;;;;;;;;;4959932;28;20093;-77
2024/03/20 04:16:29;;;;;;;0.38;0.38;;;;;;;;;;4957709;28;20088;-75
2024/03/20 04:18:55;;;;;;;0.20;0.00;;;;;;;;;;4959779;28;20050;-76
2024/03/20 04:21:23;;;;;;;0.20;0.20;;;;;;;;;;4947023;28;20046;-77
2024/03/20 04:23:49;;;;;;;0.25;0.15;;;;;;;;;;4945431;28;20049;-77
2024/03/20 04:26:15;;;;;;;0.30;0.25;;;;;;;;;;4964909;28;20096;-76
2024/03/20 04:28:41;;;;;;;0.20;0.10;;;;;;;;;;4964129;28;20062;-76
2024/03/20 04:31:07;;;;;;;0.20;0.13;;;;;;;;;;4962864;28;20034;-77
2024/03/20 04:33:33;;;;;;;0.20;0.10;;;;;;;;;;4961028;28;20057;-78
2024/03/20 04:36:04;;;;;;;0.20;0.10;;;;;;;;;;4962703;28;20046;-76
2024/03/20 04:38:30;;;;;;;0.20;0.20;;;;;;;;;;4947138;28;20038;-77
2024/03/20 04:40:56;;;;;;;0.30;0.10;;;;;;;;;;4955300;28;20043;-77
2024/03/20 04:43:22;;;;;;;0.30;0.15;;;;;;;;;;4948947;28;20049;-77
2024/03/20 04:45:47;;;;;;;0.28;0.15;;;;;;;;;;4952620;28;20038;-77
2024/03/20 04:48:13;;;;;;;0.30;0.20;;;;;;;;;;4971792;28;20034;-78
2024/03/20 04:50:39;;;;;;;0.22;0.10;;;;;;;;;;4964735;28;20066;-77
2024/03/20 04:53:06;;;;;;;0.20;0.10;;;;;;;;;;4965841;28;20057;-78
2024/03/20 04:55:32;;;;;;;0.20;0.00;;;;;;;;;;4951305;28;20038;-78
2024/03/20 04:57:58;;;;;;;0.20;0.05;;;;;;;;;;4948346;28;20140;-78
2024/03/20 05:00:24;;;;;;;0.20;0.10;;;;;;;;;;4966305;28;20468;-78
2024/03/20 05:02:50;;;;;;;0.52;0.50;;;;;;;;;;4964991;28;20137;-78
2024/03/20 05:05:16;;;;;;;0.20;0.15;;;;;;;;;;4949188;28;20137;-77
2024/03/20 05:07:42;;;;;;;0.20;0.20;;;;;;;;;;4966282;28;20043;-77
2024/03/20 05:10:08;;;;;;;0.20;0.10;;;;;;;;;;4963902;28;20037;-78
2024/03/20 05:12:34;;;;;;;0.20;0.10;;;;;;;;;;4951454;28;20046;-78
2024/03/20 05:15:00;;;;;;;0.20;0.20;;;;;;;;;;4960660;28;20081;-78
2024/03/20 05:17:27;;;;;;;0.20;0.00;;;;;;;;;;4992792;28;20033;-77
2024/03/20 05:19:53;;;;;;;0.20;0.10;;;;;;;;;;4973564;28;20050;-78
2024/03/20 05:22:19;;;;;;;0.20;0.08;;;;;;;;;;4999276;28;20070;-78
2024/03/20 05:24:51;;;;;;;0.20;0.20;;;;;;;;;;4996219;28;20092;-77
2024/03/20 05:27:20;;;;;;;0.20;0.10;;;;;;;;;;5000000;28;20037;-78
2024/03/20 05:29:46;;;;;;;0.20;0.20;;;;;;;;;;4977767;28;20045;-76
2024/03/20 05:32:12;;;;;;;0.20;0.00;;;;;;;;;;4971807;28;20058;-77
2024/03/20 05:34:38;;;;;;;0.47;0.47;;;;;;;;;;4967291;28;20121;-78
2024/03/20 05:37:05;;;;;;;0.30;0.25;;;;;;;;;;4982366;28;20526;-77
2024/03/20 05:39:31;;;;;;;0.20;0.15;;;;;;;;;;4977672;28;20072;-78
2024/03/20 05:41:57;;;;;;;0.30;0.20;;;;;;;;;;4990731;28;20049;-77
2024/03/20 05:44:23;;;;;;;0.20;0.10;;;;;;;;;;4979505;28;20038;-78
2024/03/20 05:46:52;;;;;;;0.20;0.13;;;;;;;;;;4982207;28;20048;-78
2024/03/20 05:49:22;;;;;;;0.20;0.10;;;;;;;;;;4972880;28;20042;-76
2024/03/20 05:51:48;;;;;;;0.20;0.03;;;;;;;;;;4977426;28;20081;-78
2024/03/20 05:54:14;;;;;;;0.30;0.28;;;;;;;;;;4982773;28;20037;-77
2024/03/20 05:56:40;;;;;;;0.20;0.10;;;;;;;;;;4978633;28;20052;-78
2024/03/20 05:59:07;;;;;;;0.20;0.00;;;;;;;;;;4956312;28;20042;-77
2024/03/20 06:01:33;;;;;;;0.30;0.30;;;;;;;;;;4986084;28;21660;-77
2024/03/20 06:03:59;;;;;;;0.20;0.10;;;;;;;;;;5000300;28;20049;-77
2024/03/20 06:06:28;;;;;;;0.20;0.10;;;;;;;;;;4983280;28;20605;-78
2024/03/20 06:08:54;;;;;;;0.50;0.20;;;;;;;;;;4986023;28;20072;-77
2024/03/20 06:11:22;;;;;;;0.20;0.05;;;;;;;;;;4982962;28;20480;-78
2024/03/20 06:13:48;;;;;;;0.20;0.10;;;;;;;;;;4966971;28;20053;-77
2024/03/20 06:16:14;;;;;;;0.20;0.03;;;;;;;;;;5014959;28;20449;-78
2024/03/20 06:18:40;;;;;;;0.40;0.35;;;;;;;;;;4983341;28;20104;-78
2024/03/20 06:21:06;;;;;;;0.20;0.10;;;;;;;;;;4984233;28;20355;-78
2024/03/20 06:23:32;;;;;;;0.20;0.10;;;;;;;;;;4987331;28;20078;-78
2024/03/20 06:25:59;;;;;;;0.38;0.22;;;;;;;;;;4984504;28;20050;-77
2024/03/20 06:28:25;;;;;;;0.20;0.10;;;;;;;;;;4987015;28;20045;-77
2024/03/20 06:30:53;;;;;;;0.20;0.00;;;;;;;;;;4985649;28;20795;-77
2024/03/20 06:33:19;;;;;;;0.20;0.00;;;;;;;;;;5002214;28;20060;-77
2024/03/20 06:35:50;;;;;;;0.73;0.43;;;;;;;;;;4989202;28;20045;-77
2024/03/20 06:38:16;;;;;;;0.20;0.00;;;;;;;;;;4987209;28;20229;-77
2024/03/20 06:40:45;;;;;;;2.55;0.30;;;;;;;;;;4985245;28;20510;-78
2024/03/20 06:43:11;;;;;;;0.20;0.10;;;;;;;;;;4987012;28;20100;-77
2024/03/20 06:45:47;;;;;;;0.20;0.08;;;;;;;;;;4984556;28;20049;-77
2024/03/20 06:48:13;;;;;;;0.30;0.20;;;;;;;;;;4999859;28;20041;-78
2024/03/20 06:50:40;;;;;;;0.20;0.10;;;;;;;;;;4984128;28;20113;-78
2024/03/20 06:53:06;;;;;;;0.20;0.10;;;;;;;;;;4964087;28;20038;-78
2024/03/20 06:55:33;;;;;;;0.20;0.10;;;;;;;;;;4981369;28;20037;-77
2024/03/20 06:58:01;;;;;;;0.28;0.15;;;;;;;;;;4985615;28;20042;-78
2024/03/20 07:00:27;;;;;;;0.32;0.30;;;;;;;;;;5017780;28;20519;-78
2024/03/20 07:02:58;;;;;;;0.20;0.10;;;;;;;;;;4989361;28;20800;-79
2024/03/20 07:05:24;;;;;;;0.30;0.20;;;;;;;;;;4986056;28;20656;-76
2024/03/20 07:07:50;;;;;;;0.20;0.10;;;;;;;;;;5018059;28;20057;-78
2024/03/20 07:10:17;;;;;;;0.25;0.15;;;;;;;;;;4979077;28;20038;-78
2024/03/20 07:12:43;;;;;;;0.85;0.63;;;;;;;;;;4979522;28;20606;-78
2024/03/20 07:15:10;;;;;;;0.20;0.10;;;;;;;;;;4965445;28;20037;-78
2024/03/20 07:17:36;;;;;;;0.20;0.00;;;;;;;;;;4973120;28;20054;-77
2024/03/20 07:20:06;;;;;;;0.20;0.10;;;;;;;;;;4959699;28;20042;-78
2024/03/20 07:22:33;;;;;;;0.28;0.10;;;;;;;;;;4997294;28;20066;-76
2024/03/20 07:24:59;;;;;;;0.20;0.03;;;;;;;;;;4966101;28;20045;-77
2024/03/20 07:27:26;;;;;;;0.20;0.00;;;;;;;;;;4976255;28;20037;-78
2024/03/20 07:29:52;;;;;;;0.20;0.10;;;;;;;;;;4969323;28;20038;-77
2024/03/20 07:32:18;;;;;;;0.20;0.10;;;;;;;;;;4960412;28;20065;-78
2024/03/20 07:34:44;;;;;;;0.30;0.30;;;;;;;;;;4961529;28;20664;-78
2024/03/20 07:37:11;;;;;;;0.20;0.13;;;;;;;;;;4960883;28;20698;-78
2024/03/20 07:39:37;;;;;;;0.30;0.20;;;;;;;;;;4965969;28;20063;-78
2024/03/20 07:42:04;;;;;;;0.20;0.17;;;;;;;;;;4964153;28;20070;-77
2024/03/20 07:44:30;;;;;;;0.28;0.17;;;;;;;;;;4963291;28;20408;-77
2024/03/20 07:46:57;;;;;;;0.20;0.10;;;;;;;;;;4952076;28;20065;-78
2024/03/20 07:49:23;;;;;;;0.20;0.00;;;;;;;;;;4964238;28;20045;-77
2024/03/20 07:51:49;;;;;;;0.20;0.10;;;;;;;;;;4957256;28;20045;-77
2024/03/20 07:54:15;;;;;;;0.20;0.10;;;;;;;;;;4962114;28;20085;-78
2024/03/20 07:56:41;;;;;;;0.20;0.00;;;;;;;;;;4964423;28;20050;-78
2024/03/20 07:59:07;;;;;;;0.20;0.00;;;;;;;;;;4970313;28;20421;-77
2024/03/20 08:01:38;;;;;;;0.28;0.17;;;;;;;;;;4970871;28;20129;-78
2024/03/20 08:04:04;;;;;;;0.20;0.10;;;;;;;;;;4955204;28;20027;-78
2024/03/20 08:06:30;;;;;;;0.20;0.00;;;;;;;;;;4970302;28;20062;-77
2024/03/20 08:08:56;;;;;;;0.30;0.17;;;;;;;;;;4957212;28;20064;-77
2024/03/20 08:11:22;;;;;;;0.20;0.00;;;;;;;;;;4957004;28;20062;-76
2024/03/20 08:13:49;;;;;;;0.20;0.08;;;;;;;;;;4966845;28;21779;-75
2024/03/20 08:16:15;;;;;;;0.25;0.10;;;;;;;;;;4961955;28;20049;-76
2024/03/20 08:18:41;;;;;;;0.20;0.05;;;;;;;;;;4963973;28;20399;-76
2024/03/20 08:21:09;;;;;;;0.20;0.00;;;;;;;;;;4953140;28;20047;-76
2024/03/20 08:23:35;;;;;;;0.20;0.00;;;;;;;;;;4952366;28;20093;-75
2024/03/20 08:26:01;;;;;;;0.20;0.00;;;;;;;;;;4967169;28;20035;-74
2024/03/20 08:28:27;;;;;;;0.20;0.00;;;;;;;;;;4965255;28;20057;-76
2024/03/20 08:30:53;;;;;;;0.20;0.10;;;;;;;;;;4967233;28;20065;-76
2024/03/20 08:33:20;;;;;;;0.20;0.10;;;;;;;;;;4969601;28;20034;-76
2024/03/20 08:35:57;;;;;;;0.20;0.10;;;;;;;;;;4971395;28;20039;-77
2024/03/20 08:38:24;;;;;;;0.20;0.10;;;;;;;;;;4956484;28;20175;-77
2024/03/20 08:40:50;;;;;;;0.20;0.05;;;;;;;;;;4966293;28;21555;-77
2024/03/20 08:43:16;;;;;;;0.25;0.20;;;;;;;;;;4970326;28;20675;-76
2024/03/20 08:45:42;;;;;;;0.20;0.20;;;;;;;;;;4951768;28;20050;-75
2024/03/20 08:48:08;;;;;;;0.20;0.10;;;;;;;;;;4964089;28;20145;-77
2024/03/20 08:50:39;;;;;;;0.40;0.32;;;;;;;;;;4953977;28;20121;-75
2024/03/20 08:53:07;;;;;;;0.20;0.03;;;;;;;;;;4965022;28;20047;-77
2024/03/20 08:55:33;;;;;;;0.50;0.43;;;;;;;;;;4967613;28;20038;-77
2024/03/20 08:57:59;;;;;;;0.20;0.00;;;;;;;;;;4969937;28;20038;-77
2024/03/20 09:00:26;;;;;;;0.20;0.20;;;;;;;;;;4967857;28;20049;-77
2024/03/20 09:02:52;;;;;;;0.85;0.10;;;;;;;;;;4950795;28;20066;-77
2024/03/20 09:05:18;;;;;;;0.20;0.10;;;;;;;;;;4969590;28;20038;-77
2024/03/20 09:07:44;;;;;;;0.20;0.17;;;;;;;;;;4954461;28;20050;-78
2024/03/20 09:10:11;;;;;;;0.20;0.05;;;;;;;;;;4962674;28;20069;-77
2024/03/20 09:12:37;;;;;;;0.20;0.00;;;;;;;;;;5001585;28;20054;-76
2024/03/20 09:15:05;;;;;;;0.20;0.03;;;;;;;;;;4988770;23;20061;-77
2024/03/20 09:17:31;;;;;;;0.25;0.20;;;;;;;;;;4950725;28;20129;-77
2024/03/20 09:19:57;;;;;;;0.20;0.10;;;;;;;;;;4962018;28;20054;-76
2024/03/20 09:22:23;;;;;;;0.20;0.00;;;;;;;;;;4966863;28;20043;-78
2024/03/20 09:24:49;;;;;;;0.38;0.38;;;;;;;;;;4970278;28;20035;-77
2024/03/20 09:27:15;;;;;;;2.83;1.85;;;;;;;;;;4988006;28;20093;-77
2024/03/20 09:29:42;;;;;;;0.20;0.17;;;;;;;;;;4950595;28;20049;-76
2024/03/20 09:32:08;;;;;;;0.20;0.03;;;;;;;;;;4952616;28;20042;-77
2024/03/20 09:34:35;;;;;;;0.20;0.00;;;;;;;;;;4968477;28;20030;-78
2024/03/20 09:37:01;;;;;;;0.57;0.50;;;;;;;;;;4966390;28;20561;-78
2024/03/20 09:39:27;;;;;;;0.20;0.20;;;;;;;;;;4964032;28;20078;-78
2024/03/20 09:41:53;;;;;;;0.77;0.30;;;;;;;;;;4949928;28;20038;-78
2024/03/20 09:44:21;;;;;;;0.20;0.20;;;;;;;;;;4963158;28;20386;-78
2024/03/20 09:46:48;;;;;;;0.35;0.22;;;;;;;;;;4945858;28;20050;-77
2024/03/20 09:49:16;;;;;;;0.20;0.10;;;;;;;;;;4959693;28;20038;-76
2024/03/20 09:51:42;;;;;;;0.20;0.10;;;;;;;;;;4945405;28;20069;-78
2024/03/20 09:54:09;;;;;;;0.20;0.10;;;;;;;;;;4947073;28;20042;-76
2024/03/20 09:56:35;;;;;;;0.22;0.17;;;;;;;;;;4963334;28;20093;-77
2024/03/20 09:59:02;;;;;;;0.20;0.00;;;;;;;;;;4969053;28;20438;-77
2024/03/20 10:01:27;;;;;;;0.20;0.10;;;;;;;;;;4964858;28;20435;-77
2024/03/20 10:03:54;;;;;;;0.20;0.00;;;;;;;;;;4961746;28;20030;-77
2024/03/20 10:06:25;;;;;;;0.20;0.17;;;;;;;;;;4959869;28;20039;-78
2024/03/20 10:08:51;;;;;;;0.20;0.10;;;;;;;;;;4962062;28;20042;-79
2024/03/20 10:11:20;;;;;;;0.20;0.13;;;;;;;;;;4949716;28;20042;-79
2024/03/20 10:13:46;;;;;;;0.20;0.10;;;;;;;;;;4966865;28;20046;-78
2024/03/20 10:16:17;;;;;;;0.20;0.10;;;;;;;;;;4977118;28;20035;-77
2024/03/20 10:18:44;;;;;;;0.75;0.75;;;;;;;;;;4978009;28;20050;-78
2024/03/20 10:21:10;;;;;;;0.20;0.10;;;;;;;;;;4962349;28;20427;-78
2024/03/20 10:23:37;;;;;;;0.20;0.20;;;;;;;;;;4978484;28;20125;-76
2024/03/20 10:26:03;;;;;;;0.20;0.13;;;;;;;;;;4964659;28;20057;-78
2024/03/20 10:28:30;;;;;;;0.20;0.10;;;;;;;;;;4963917;28;20038;-78
2024/03/20 10:31:01;;;;;;;0.20;0.10;;;;;;;;;;4983550;28;20683;-78
2024/03/20 10:33:28;;;;;;;0.20;0.05;;;;;;;;;;4974387;28;20554;-78
2024/03/20 10:35:54;;;;;;;0.50;0.20;;;;;;;;;;4978896;28;20535;-78
2024/03/20 10:38:20;;;;;;;0.35;0.35;;;;;;;;;;4963545;28;20137;-78
2024/03/20 10:40:48;;;;;;;0.20;0.10;;;;;;;;;;4975644;28;20046;-78
2024/03/20 10:43:21;;;;;;;0.20;0.10;;;;;;;;;;4963828;28;20419;-79
2024/03/20 10:45:48;;;;;;;0.20;0.10;;;;;;;;;;4981448;28;20053;-79
2024/03/20 10:48:19;;;;;;;0.20;0.10;;;;;;;;;;4979127;28;20057;-76
2024/03/20 10:50:47;;;;;;;0.63;0.38;;;;;;;;;;4973746;28;20038;-76
2024/03/20 10:53:16;;;;;;;0.20;0.10;;;;;;;;;;4976411;28;20041;-77
2024/03/20 10:55:43;;;;;;;0.20;0.08;;;;;;;;;;4977840;28;20037;-78
2024/03/20 10:58:11;;;;;;;0.20;0.10;;;;;;;;;;4980257;28;20031;-78
2024/03/20 11:00:40;;;;;;;0.30;0.20;;;;;;;;;;4964397;28;20046;-76
2024/03/20 11:03:25;;;;;;;0.25;0.10;;;;;;;;;;4974646;28;20046;-77
2024/03/20 11:05:51;;;;;;;0.20;0.10;;;;;;;;;;4977148;28;20154;-78
2024/03/20 11:08:17;;;;;;;0.20;0.20;;;;;;;;;;4978671;28;20077;-77
2024/03/20 11:10:47;;;;;;;0.20;0.05;;;;;;;;;;4980749;28;20034;-77
2024/03/20 11:13:23;;;;;;;0.75;0.50;;;;;;;;;;4975308;28;20049;-78
2024/03/20 11:15:50;;;;;;;0.45;0.45;;;;;;;;;;4947645;28;20042;-77
2024/03/20 11:18:22;;;;;;;0.20;0.20;;;;;;;;;;4962197;28;20573;-78
2024/03/20 11:20:48;;;;;;;0.20;0.05;;;;;;;;;;4964346;28;20038;-79
2024/03/20 11:23:26;;;;;;;0.20;0.13;;;;;;;;;;4961456;28;20396;-77
2024/03/20 11:25:53;;;;;;;0.75;0.45;;;;;;;;;;4944843;28;20133;-77
2024/03/20 11:28:19;;;;;;;0.20;0.08;;;;;;;;;;4960011;28;20046;-78
2024/03/20 11:30:46;;;;;;;0.20;0.10;;;;;;;;;;4950498;28;20113;-77
2024/03/20 11:33:12;;;;;;;1.08;0.57;;;;;;;;;;4964876;28;20047;-77
2024/03/20 11:35:38;;;;;;;0.55;0.43;;;;;;;;;;4965934;28;20050;-78
2024/03/20 11:38:13;;;;;;;0.30;0.20;;;;;;;;;;4966950;28;20034;-77
2024/03/20 11:40:39;;;;;;;0.20;0.10;;;;;;;;;;4961631;28;20046;-76
2024/03/20 11:43:06;;;;;;;0.30;0.30;;;;;;;;;;4954276;28;20177;-78
2024/03/20 11:45:34;;;;;;;0.20;0.10;;;;;;;;;;4952091;28;20046;-77
2024/03/20 11:48:00;;;;;;;0.30;0.20;;;;;;;;;;4969664;28;20042;-76
2024/03/20 11:50:27;;;;;;;0.30;0.30;;;;;;;;;;4968303;28;20575;-77
2024/03/20 11:52:53;;;;;;;0.20;0.17;;;;;;;;;;4965975;28;20081;-77
2024/03/20 11:55:22;;;;;;;0.47;0.28;;;;;;;;;;4965678;28;20084;-77
2024/03/20 11:57:48;;;;;;;0.50;0.40;;;;;;;;;;4968165;28;20038;-78
2024/03/20 12:00:17;;;;;;;0.20;0.10;;;;;;;;;;4967898;28;20039;-78
2024/03/20 12:02:45;;;;;;;0.75;0.40;;;;;;;;;;4967126;28;20511;-76
2024/03/20 12:05:12;;;;;;;0.20;0.10;;;;;;;;;;4967552;28;20426;-76
2024/03/20 12:07:39;;;;;;;0.30;0.30;;;;;;;;;;4966327;28;20053;-77
2024/03/20 12:10:06;;;;;;;0.20;0.10;;;;;;;;;;4965724;28;20046;-76
2024/03/20 12:12:32;;;;;;;0.25;0.10;;;;;;;;;;4963889;28;20042;-76
2024/03/20 12:14:59;;;;;;;0.75;0.25;;;;;;;;;;4979229;28;20553;-78
2024/03/20 12:17:29;;;;;;;0.20;0.15;;;;;;;;;;4981339;28;20050;-78
2024/03/20 12:19:55;;;;;;;0.22;0.10;;;;;;;;;;4982200;28;20038;-77
2024/03/20 12:22:21;;;;;;;0.30;0.20;;;;;;;;;;4984323;28;20463;-78
2024/03/20 12:24:48;;;;;;;0.22;0.15;;;;;;;;;;4989176;28;20068;-78
2024/03/20 12:27:14;;;;;;;1.80;0.88;;;;;;;;;;4980259;28;20328;-76
2024/03/20 12:29:42;;;;;;;0.32;0.22;;;;;;;;;;4986283;28;20066;-78
2024/03/20 12:32:08;;;;;;;0.20;0.10;;;;;;;;;;4983174;28;20053;-76
2024/03/20 12:34:34;;;;;;;0.40;0.25;;;;;;;;;;4983564;28;20073;-77
2024/03/20 12:37:00;;;;;;;0.63;0.63;;;;;;;;;;4985713;28;20035;-78
2024/03/20 12:39:30;;;;;;;0.30;0.20;;;;;;;;;;4979733;28;20097;-76
2024/03/20 12:41:58;;;;;;;0.57;0.35;;;;;;;;;;4977656;28;20050;-77
2024/03/20 12:44:24;;;;;;;0.55;0.55;;;;;;;;;;5000489;28;20073;-78
2024/03/20 12:46:50;;;;;;;0.63;0.63;;;;;;;;;;4984597;28;21129;-76
2024/03/20 12:49:17;;;;;;;1.65;0.95;;;;;;;;;;4983494;28;20057;-77
2024/03/20 12:51:43;;;;;;;0.20;0.20;;;;;;;;;;4982390;28;20113;-78
2024/03/20 12:54:16;;;;;;;0.20;0.20;;;;;;;;;;4980279;28;20034;-78
2024/03/20 12:56:43;;;;;;;0.32;0.32;;;;;;;;;;4981637;28;20234;-76
2024/03/20 12:59:11;;;;;;;0.82;0.57;;;;;;;;;;4979363;28;20455;-77
2024/03/20 13:01:37;;;;;;;0.20;0.10;;;;;;;;;;4977759;28;20128;-78
2024/03/20 13:04:05;;;;;;;0.20;0.20;;;;;;;;;;4984789;28;20035;-77
2024/03/20 13:06:31;;;;;;;0.20;0.03;;;;;;;;;;4978868;28;20464;-79
2024/03/20 13:08:58;;;;;;;0.73;0.45;;;;;;;;;;4979311;28;20039;-75
2024/03/20 13:11:28;;;;;;;0.20;0.10;;;;;;;;;;4965057;28;20035;-77
2024/03/20 13:13:57;;;;;;;0.22;0.20;;;;;;;;;;4963450;28;20054;-76
2024/03/20 13:16:23;;;;;;;0.63;0.52;;;;;;;;;;4986285;28;20114;-77
2024/03/20 13:18:51;;;;;;;0.20;0.10;;;;;;;;;;4984641;28;20166;-76
2024/03/20 13:21:28;;;;;;;0.32;0.30;;;;;;;;;;4982606;28;20035;-77
2024/03/20 13:24:00;;;;;;;0.25;0.25;;;;;;;;;;4971737;28;20587;-79
2024/03/20 13:26:34;;;;;;;0.50;0.50;;;;;;;;;;4982580;28;20558;-77
2024/03/20 13:29:01;;;;;;;0.95;0.55;;;;;;;;;;4983724;28;20034;-79
2024/03/20 13:31:28;;;;;;;0.20;0.10;;;;;;;;;;4981483;28;20540;-77
2024/03/20 13:33:54;;;;;;;0.38;0.38;;;;;;;;;;4963842;28;20044;-77
2024/03/20 13:36:20;;;;;;;0.77;0.70;;;;;;;;;;4981211;28;20104;-75
2024/03/20 13:38:56;;;;;;;0.22;0.13;;;;;;;;;;4980781;28;20430;-77
2024/03/20 13:44:00;;;;;;;0.30;0.30;;;;;;;;;;4974041;28;20051;-76
2024/03/20 13:46:26;;;;;;;0.20;0.10;;;;;;;;;;4995284;28;20096;-77
2024/03/20 13:48:53;;;;;;;0.40;0.20;;;;;;;;;;4986003;28;20047;-77
2024/03/20 13:51:20;;;;;;;0.20;0.10;;;;;;;;;;4968477;28;20136;-77
2024/03/20 13:53:48;;;;;;;0.30;0.30;;;;;;;;;;4985322;28;20034;-78
2024/03/20 13:56:15;;;;;;;0.28;0.17;;;;;;;;;;4975861;28;20042;-77
2024/03/20 13:58:41;;;;;;;0.20;0.20;;;;;;;;;;4979985;28;20042;-77
2024/03/20 14:01:18;;;;;;;0.30;0.20;;;;;;;;;;4962707;28;20078;-76
2024/03/20 14:03:44;;;;;;;0.20;0.10;;;;;;;;;;4995350;28;20388;-77
2024/03/20 14:06:17;;;;;;;0.20;0.10;;;;;;;;;;4982653;28;20419;-77
2024/03/20 14:08:44;;;;;;;0.77;0.45;;;;;;;;;;5001728;28;20722;-77
2024/03/20 14:11:13;;;;;;;0.30;0.10;;;;;;;;;;4981186;28;20035;-76
2024/03/20 14:13:40;;;;;;;0.20;0.10;;;;;;;;;;4968568;28;20104;-76
2024/03/20 14:16:06;;;;;;;0.45;0.45;;;;;;;;;;4984300;28;20127;-76
2024/03/20 14:18:33;;;;;;;0.20;0.10;;;;;;;;;;4986052;28;20561;-77
2024/03/20 14:20:59;;;;;;;0.25;0.20;;;;;;;;;;4983526;28;20074;-78
2024/03/20 14:23:25;;;;;;;0.20;0.08;;;;;;;;;;4985665;28;20072;-78
2024/03/20 14:25:51;;;;;;;0.20;0.10;;;;;;;;;;4985016;28;20057;-76
2024/03/20 14:28:17;;;;;;;0.20;0.10;;;;;;;;;;4984299;28;20046;-78
2024/03/20 14:30:44;;;;;;;0.30;0.28;;;;;;;;;;4985849;28;20573;-77
2024/03/20 14:33:10;;;;;;;0.60;0.52;;;;;;;;;;4986442;28;20057;-77
2024/03/20 14:35:36;;;;;;;0.20;0.03;;;;;;;;;;4984819;28;20069;-76
2024/03/20 14:38:14;;;;;;;0.20;0.10;;;;;;;;;;4984989;28;20052;-77
2024/03/20 14:40:41;;;;;;;0.20;0.03;;;;;;;;;;4987142;28;20070;-77
2024/03/20 14:43:08;;;;;;;0.28;0.20;;;;;;;;;;4984624;28;20077;-76